Time;durP1;ratioP1;P1;durP2;ratioP2;P2;SDS_P1;SDS_P2;PMS_P1;PMS_P2;Temp;Humidity;BMP_temperature;BMP_pressure;BME280_temperature;BME280_humidity;BME280_pressure;Samples;Min_cycle;Max_cycle;Signal;HPM_P1;HPM_P2
2022/08/26 00:02:16;;;;;;;12.83;11.40;;;;;;;20.03;100.00;96104.50;5050206;27;102579;-65
2022/08/26 00:04:44;;;;;;;15.50;11.77;;;;;;;19.83;100.00;96100.50;5049510;27;101965;-65
2022/08/26 00:07:11;;;;;;;14.33;12.33;;;;;;;19.81;100.00;96104.63;5048809;27;105160;-65
2022/08/26 00:09:38;;;;;;;15.17;12.03;;;;;;;19.87;100.00;96101.47;5050381;27;102623;-65
2022/08/26 00:12:06;;;;;;;14.07;12.57;;;;;;;19.89;100.00;96103.88;5050924;27;101835;-65
2022/08/26 00:14:35;;;;;;;14.60;11.93;;;;;;;19.91;100.00;96101.63;5050570;27;102395;-65
2022/08/26 00:17:02;;;;;;;12.00;10.90;;;;;;;19.91;100.00;96094.34;5051820;27;101802;-65
2022/08/26 00:19:29;;;;;;;14.53;12.00;;;;;;;19.96;100.00;96088.78;5050882;27;101665;-65
2022/08/26 00:21:57;;;;;;;14.37;12.10;;;;;;;19.95;100.00;96089.09;5048732;27;105101;-65
2022/08/26 00:24:24;;;;;;;12.73;10.70;;;;;;;19.93;100.00;96094.00;5050500;27;101880;-65
2022/08/26 00:26:51;;;;;;;15.97;12.37;;;;;;;19.71;100.00;96091.44;5050668;27;102583;-65
2022/08/26 00:29:19;;;;;;;18.60;12.73;;;;;;;19.66;100.00;96088.88;5048141;27;105430;-65
2022/08/26 00:31:48;;;;;;;12.43;11.20;;;;;;;19.63;100.00;96094.91;5049045;27;102022;-65
2022/08/26 00:34:15;;;;;;;14.77;12.17;;;;;;;19.70;100.00;96097.94;5048992;27;105205;-65
2022/08/26 00:36:43;;;;;;;13.80;11.07;;;;;;;19.71;100.00;96099.53;5053291;27;102724;-65
2022/08/26 00:39:11;;;;;;;12.93;11.63;;;;;;;19.65;100.00;96101.59;5031603;27;104688;-65
2022/08/26 00:41:40;;;;;;;15.53;11.40;;;;;;;19.68;100.00;96102.88;5049684;27;102611;-65
2022/08/26 00:44:09;;;;;;;14.33;11.63;;;;;;;19.70;100.00;96097.94;5049968;27;101835;-65
2022/08/26 00:46:41;;;;;;;16.33;11.20;;;;;;;19.61;100.00;96105.25;5050058;27;103838;-65
2022/08/26 00:49:13;;;;;;;13.20;10.23;;;;;;;19.59;100.00;96108.25;5048202;27;104989;-65
2022/08/26 00:51:46;;;;;;;11.63;10.37;;;;;;;19.62;100.00;96094.13;5050053;27;101689;-65
2022/08/26 00:54:13;;;;;;;12.37;10.93;;;;;;;19.70;100.00;96100.63;5049831;27;104420;-65
2022/08/26 00:56:46;;;;;;;11.17;10.00;;;;;;;19.77;100.00;96092.88;5047855;27;105277;-65
2022/08/26 00:59:15;;;;;;;13.23;11.07;;;;;;;19.73;100.00;96087.31;4994038;27;1615729;-65
2022/08/26 01:01:43;;;;;;;13.70;11.10;;;;;;;19.57;100.00;96093.47;5048713;27;105874;-65
2022/08/26 01:04:15;;;;;;;11.37;10.27;;;;;;;19.45;100.00;96090.59;5050775;27;101818;-65
2022/08/26 01:06:42;;;;;;;11.20;10.17;;;;;;;19.39;100.00;96083.72;5051223;27;102768;-65
2022/08/26 01:09:10;;;;;;;12.23;10.13;;;;;;;19.37;100.00;96085.97;5050548;27;101773;-65
2022/08/26 01:11:36;;;;;;;13.13;10.93;;;;;;;19.30;100.00;96089.09;5050936;27;102282;-65
2022/08/26 01:14:06;;;;;;;15.70;11.43;;;;;;;19.34;100.00;96083.91;5050937;27;102412;-65
2022/08/26 01:16:34;;;;;;;10.77;9.77;;;;;;;19.55;100.00;96083.00;5050061;27;102609;-65
2022/08/26 01:19:09;;;;;;;11.97;9.43;;;;;;;19.66;100.00;96088.88;5051075;27;101702;-65
2022/08/26 01:21:45;;;;;;;12.40;11.10;;;;;;;19.62;100.00;96088.72;5054650;27;102369;-65
2022/08/26 01:24:14;;;;;;;11.03;9.83;;;;;;;19.52;100.00;96082.84;5050761;27;102127;-65
2022/08/26 01:26:43;;;;;;;12.70;10.37;;;;;;;19.45;100.00;96088.69;5051199;27;102413;-65
2022/08/26 01:29:14;;;;;;;12.23;10.40;;;;;;;19.42;100.00;96088.50;5048774;27;105663;-65
2022/08/26 01:31:46;;;;;;;12.27;10.17;;;;;;;19.42;100.00;96081.22;5049340;27;101826;-65
2022/08/26 01:34:19;;;;;;;11.20;10.00;;;;;;;19.38;100.00;96085.66;5050709;27;102308;-65
2022/08/26 01:36:48;;;;;;;12.73;10.33;;;;;;;19.45;100.00;96082.50;5048623;27;106792;-65
2022/08/26 01:39:17;;;;;;;11.87;10.57;;;;;;;19.50;100.00;96085.06;5050420;27;101771;-65
2022/08/26 01:41:45;;;;;;;13.67;10.77;;;;;;;19.45;100.00;96087.91;5049153;27;104212;-65
2022/08/26 01:44:17;;;;;;;12.40;11.07;;;;;;;19.37;100.00;96088.66;5051776;27;105758;-65
2022/08/26 01:46:46;;;;;;;14.33;11.87;;;;;;;19.39;100.00;96083.72;5050529;27;102458;-65
2022/08/26 01:49:14;;;;;;;14.43;12.93;;;;;;;19.38;100.00;96096.44;5049941;27;102995;-64
2022/08/26 01:51:43;;;;;;;14.70;11.77;;;;;;;19.35;100.00;96088.97;5050223;27;102016;-64
2022/08/26 01:54:12;;;;;;;15.23;12.17;;;;;;;19.33;100.00;96085.78;5048919;27;105626;-64
2022/08/26 01:56:41;;;;;;;12.90;10.97;;;;;;;19.29;100.00;96082.13;5049571;27;102207;-64
2022/08/26 01:59:14;;;;;;;16.20;11.27;;;;;;;19.27;100.00;96097.03;5049578;27;101959;-65
2022/08/26 02:01:41;;;;;;;15.23;11.30;;;;;;;19.08;100.00;96091.06;5050162;27;102813;-64
2022/08/26 02:04:16;;;;;;;13.00;10.50;;;;;;;19.02;100.00;96100.38;5048101;27;105862;-64
2022/08/26 02:06:44;;;;;;;14.03;11.43;;;;;;;19.09;100.00;96100.72;5053693;27;101753;-64
2022/08/26 02:09:12;;;;;;;16.53;11.77;;;;;;;19.07;100.00;96092.19;5047989;27;105390;-64
2022/08/26 02:11:40;;;;;;;12.77;11.33;;;;;;;18.96;100.00;96101.63;5048637;27;102253;-64
2022/08/26 02:14:11;;;;;;;13.77;10.97;;;;;;;18.93;100.00;96102.25;5048392;27;105304;-65
2022/08/26 02:16:41;;;;;;;11.33;10.23;;;;;;;18.96;100.00;96101.63;5048108;27;105735;-64
2022/08/26 02:19:13;;;;;;;13.00;10.80;;;;;;;19.02;100.00;96098.47;5048651;27;101766;-64
2022/08/26 02:21:41;;;;;;;12.80;10.40;;;;;;;19.06;100.00;96094.06;5050108;27;102471;-64
2022/08/26 02:24:11;;;;;;;10.50;9.47;;;;;;;19.09;100.00;96096.16;5047411;27;105718;-64
2022/08/26 02:26:38;;;;;;;14.73;10.93;;;;;;;19.12;100.00;96089.34;5054188;27;101763;-64
2022/08/26 02:29:11;;;;;;;11.13;9.97;;;;;;;19.19;100.00;96089.69;5049304;27;102541;-64
2022/08/26 02:31:38;;;;;;;12.47;10.83;;;;;;;19.19;100.00;96090.47;5049864;27;101736;-64
2022/08/26 02:34:10;;;;;;;12.87;10.17;;;;;;;19.32;100.00;96094.19;5049566;27;101767;-64
2022/08/26 02:36:38;;;;;;;12.70;10.10;;;;;;;19.27;100.00;96091.63;5047743;27;104521;-64
2022/08/26 02:39:06;;;;;;;14.20;10.30;;;;;;;19.20;100.00;96091.25;5049623;27;102006;-65
2022/08/26 02:41:34;;;;;;;12.13;10.93;;;;;;;19.15;100.00;96100.28;5049821;27;102584;-64
2022/08/26 02:44:01;;;;;;;12.67;9.90;;;;;;;18.77;100.00;96098.34;5047573;27;105475;-64
2022/08/26 02:46:30;;;;;;;12.10;10.67;;;;;;;18.47;100.00;96099.91;5050400;27;101841;-64
2022/08/26 02:48:57;;;;;;;11.17;10.17;;;;;;;18.48;100.00;96095.31;5051061;27;103782;-64
2022/08/26 02:51:25;;;;;;;12.33;10.47;;;;;;;18.49;100.00;96096.91;5031264;27;101924;-64
2022/08/26 02:53:53;;;;;;;11.30;10.20;;;;;;;18.71;100.00;96094.19;5049222;27;102363;-64
2022/08/26 02:56:20;;;;;;;12.53;9.77;;;;;;;18.77;100.00;96095.66;5048903;27;102656;-64
2022/08/26 02:58:47;;;;;;;11.40;10.20;;;;;;;18.80;100.00;96093.13;5048874;27;101975;-64
2022/08/26 03:01:23;;;;;;;11.70;9.00;;;;;;;18.79;100.00;96091.53;5047493;27;105070;-64
2022/08/26 03:03:51;;;;;;;10.03;9.03;;;;;;;18.90;100.00;96092.06;5049599;27;102906;-64
2022/08/26 03:06:19;;;;;;;10.23;8.50;;;;;;;18.81;100.00;96083.94;5048881;27;101801;-64
2022/08/26 03:08:46;;;;;;;9.63;8.73;;;;;;;18.82;100.00;96084.75;5049963;27;102873;-64
2022/08/26 03:11:14;;;;;;;10.40;8.73;;;;;;;18.75;100.00;96079.78;5051749;27;105459;-64
2022/08/26 03:13:42;;;;;;;9.07;8.17;;;;;;;18.72;100.00;96079.63;5048821;27;105226;-64
2022/08/26 03:16:09;;;;;;;9.33;8.00;;;;;;;18.60;100.00;96087.47;5048194;27;105403;-65
2022/08/26 03:18:36;;;;;;;9.83;7.97;;;;;;;18.69;100.00;96080.25;5050252;27;101721;-64
2022/08/26 03:21:09;;;;;;;10.60;7.90;;;;;;;18.73;100.00;96075.81;5050267;27;101750;-64
2022/08/26 03:23:38;;;;;;;8.00;7.20;;;;;;;18.73;100.00;96076.63;5048760;27;104090;-64
2022/08/26 03:26:06;;;;;;;9.17;8.33;;;;;;;18.68;100.00;96067.88;5049972;27;101883;-64
2022/08/26 03:28:33;;;;;;;9.83;7.80;;;;;;;18.63;100.00;96074.19;5050083;27;102487;-65
2022/08/26 03:30:59;;;;;;;8.63;7.73;;;;;;;18.61;100.00;96072.91;5047610;27;105939;-65
2022/08/26 03:33:27;;;;;;;8.77;7.63;;;;;;;18.55;100.00;96074.13;5053654;27;101852;-65
2022/08/26 03:35:54;;;;;;;8.67;7.63;;;;;;;18.55;100.00;96074.13;5049113;27;101858;-65
2022/08/26 03:38:25;;;;;;;9.63;7.60;;;;;;;18.59;100.00;96075.13;5048648;27;101921;-65
2022/08/26 03:40:52;;;;;;;8.90;8.00;;;;;;;18.51;100.00;96065.88;5050651;27;102808;-65
2022/08/26 03:43:20;;;;;;;11.03;8.13;;;;;;;18.53;100.00;96073.66;5051332;27;105324;-65
2022/08/26 03:45:47;;;;;;;8.23;7.40;;;;;;;18.70;100.00;96073.75;5051761;27;102252;-65
2022/08/26 03:48:14;;;;;;;12.30;7.93;;;;;;;18.65;100.00;96066.56;5052072;27;105111;-65
2022/08/26 03:50:42;;;;;;;8.70;7.80;;;;;;;18.74;100.00;96062.03;5052581;27;102576;-65
2022/08/26 03:53:09;;;;;;;9.63;8.50;;;;;;;18.77;100.00;96074.09;5052912;27;101829;-65
2022/08/26 03:55:44;;;;;;;8.77;7.87;;;;;;;18.78;100.00;96073.81;5055738;27;104465;-65
2022/08/26 03:58:11;;;;;;;7.97;7.17;;;;;;;18.67;100.00;96067.09;5053585;27;102017;-65
2022/08/26 04:00:38;;;;;;;8.20;7.40;;;;;;;18.66;100.00;96065.50;5052418;27;102204;-65
2022/08/26 04:03:06;;;;;;;11.97;8.77;;;;;;;18.57;100.00;96066.53;5052222;27;104266;-65
2022/08/26 04:05:33;;;;;;;10.07;7.77;;;;;;;18.45;100.00;96063.63;5052564;27;102013;-65
2022/08/26 04:08:00;;;;;;;8.67;7.40;;;;;;;18.29;100.00;96065.88;5052932;27;102513;-65
2022/08/26 04:10:27;;;;;;;10.07;7.80;;;;;;;18.28;100.00;96068.84;5051006;27;105808;-65
2022/08/26 04:12:56;;;;;;;8.57;7.63;;;;;;;18.31;100.00;96062.88;5052812;27;101841;-65
2022/08/26 04:15:23;;;;;;;8.13;7.33;;;;;;;18.40;100.00;96064.53;5052692;27;102865;-65
2022/08/26 04:17:51;;;;;;;9.93;7.70;;;;;;;18.44;100.00;96068.22;5055861;27;102598;-65
2022/08/26 04:20:18;;;;;;;8.23;7.43;;;;;;;18.49;100.00;96061.91;5051209;27;105638;-65
2022/08/26 04:22:46;;;;;;;8.30;7.60;;;;;;;18.52;100.00;96070.16;5052094;27;102668;-65
2022/08/26 04:25:13;;;;;;;11.03;8.40;;;;;;;18.55;100.00;96074.94;5052775;27;101860;-65
2022/08/26 04:27:40;;;;;;;9.40;8.10;;;;;;;18.60;100.00;96071.31;5052283;27;102333;-65
2022/08/26 04:30:12;;;;;;;8.10;7.30;;;;;;;18.61;100.00;96067.50;5050476;27;105395;-65
2022/08/26 04:32:39;;;;;;;8.27;7.50;;;;;;;18.63;100.00;96076.09;5051232;27;102015;-65
2022/08/26 04:35:07;;;;;;;8.10;7.30;;;;;;;18.61;100.00;96073.72;5052058;27;102301;-65
2022/08/26 04:37:34;;;;;;;7.27;6.53;;;;;;;18.54;100.00;96075.25;5055042;27;103299;-65
2022/08/26 04:40:01;;;;;;;9.00;7.10;;;;;;;18.62;100.00;96075.28;5052454;27;102902;-65
2022/08/26 04:42:28;;;;;;;7.77;6.90;;;;;;;18.47;100.00;96072.97;5051811;27;102705;-65
2022/08/26 04:44:56;;;;;;;8.20;7.37;;;;;;;18.38;100.00;96074.03;5050793;27;101924;-65
2022/08/26 04:47:24;;;;;;;9.63;7.47;;;;;;;18.31;100.00;96079.81;5052097;27;101790;-65
2022/08/26 04:49:56;;;;;;;7.87;7.10;;;;;;;18.33;100.00;96071.47;5050209;27;106804;-65
2022/08/26 04:52:23;;;;;;;8.70;7.80;;;;;;;18.33;100.00;96079.53;5049578;27;101795;-65
2022/08/26 04:54:50;;;;;;;8.70;7.90;;;;;;;18.36;100.00;96081.63;5051912;27;102726;-65
2022/08/26 04:57:17;;;;;;;8.50;7.70;;;;;;;18.28;100.00;96080.44;5050086;27;105619;-65
2022/08/26 04:59:45;;;;;;;9.33;7.73;;;;;;;18.29;100.00;96081.22;5053583;27;101902;-65
2022/08/26 05:02:13;;;;;;;9.20;7.30;;;;;;;18.43;100.00;96081.97;5049921;27;106073;-64
2022/08/26 05:04:42;;;;;;;8.13;7.43;;;;;;;18.52;100.00;96075.53;5051771;27;102047;-65
2022/08/26 05:07:09;;;;;;;8.23;7.53;;;;;;;18.58;100.00;96078.91;5051648;27;102279;-65
2022/08/26 05:09:37;;;;;;;10.53;8.20;;;;;;;18.60;100.00;96088.28;5051358;27;101900;-65
2022/08/26 05:12:04;;;;;;;8.57;7.77;;;;;;;18.62;100.00;96085.25;5051971;27;101826;-65
2022/08/26 05:14:32;;;;;;;10.87;7.83;;;;;;;18.62;100.00;96077.19;5051977;27;102909;-65
2022/08/26 05:16:59;;;;;;;8.40;7.57;;;;;;;18.63;100.00;96081.50;5051203;27;103090;-65
2022/08/26 05:19:26;;;;;;;8.07;7.30;;;;;;;18.69;100.00;96085.63;5049731;27;101946;-65
2022/08/26 05:21:55;;;;;;;9.23;7.90;;;;;;;18.59;100.00;96086.66;5053242;27;105223;-65
2022/08/26 05:24:23;;;;;;;9.07;7.87;;;;;;;18.61;100.00;96089.06;5050214;27;101946;-65
2022/08/26 05:26:50;;;;;;;8.33;7.50;;;;;;;18.59;100.00;96091.28;5050487;27;105002;-65
2022/08/26 05:29:17;;;;;;;8.20;7.37;;;;;;;18.70;100.00;96092.63;5048819;27;105899;-65
2022/08/26 05:31:44;;;;;;;7.93;7.10;;;;;;;18.82;100.00;96090.94;5049942;27;101914;-65
2022/08/26 05:34:11;;;;;;;8.50;7.70;;;;;;;18.93;100.00;96094.16;5051371;27;102475;-65
2022/08/26 05:36:39;;;;;;;8.47;7.70;;;;;;;18.97;100.00;96082.44;5050919;27;101704;-65
2022/08/26 05:39:08;;;;;;;10.53;7.70;;;;;;;19.02;100.00;96086.91;5049506;27;101994;-65
2022/08/26 05:41:38;;;;;;;8.23;7.53;;;;;;;19.07;100.00;96089.47;5051287;27;102074;-64
2022/08/26 05:44:07;;;;;;;9.10;7.37;;;;;;;19.02;100.00;96092.31;5052902;27;106366;-65
2022/08/26 05:46:35;;;;;;;10.20;7.37;;;;;;;19.01;100.00;96093.41;5049623;27;105305;-65
2022/08/26 05:49:05;;;;;;;12.50;8.47;;;;;;;19.02;100.00;96089.63;5050757;27;102831;-65
2022/08/26 05:51:33;;;;;;;8.47;7.77;;;;;;;19.13;100.00;96096.31;5051453;27;101779;-65
2022/08/26 05:54:02;;;;;;;9.13;7.40;;;;;;;19.29;100.00;96089.44;5050085;27;105174;-65
2022/08/26 05:56:31;;;;;;;9.10;8.20;;;;;;;19.47;100.00;96097.28;5050485;27;103119;-65
2022/08/26 05:59:00;;;;;;;10.43;8.23;;;;;;;19.64;100.00;96096.50;5050913;27;102031;-65
2022/08/26 06:01:28;;;;;;;8.53;7.70;;;;;;;19.79;100.00;96096.06;5050515;27;102951;-65
2022/08/26 06:03:57;;;;;;;11.07;8.20;;;;;;;19.89;100.00;96088.44;5049985;27;103180;-65
2022/08/26 06:06:27;;;;;;;8.13;7.27;;;;;;;20.04;100.00;96090.69;5052745;27;101724;-65
2022/08/26 06:08:56;;;;;;;10.40;7.90;;;;;;;19.94;100.00;96098.31;5050525;27;102663;-65
2022/08/26 06:11:25;;;;;;;13.60;8.37;;;;;;;19.85;100.00;96101.00;5050975;27;101951;-65
2022/08/26 06:13:54;;;;;;;12.20;9.10;;;;;;;19.79;100.00;96098.75;5049602;27;105674;-65
2022/08/26 06:16:24;;;;;;;19.17;9.33;;;;;;;19.94;100.00;96099.09;5050041;27;102774;-65
2022/08/26 06:18:52;;;;;;;11.77;8.00;;;;;;;20.22;100.00;96102.34;5050913;27;101868;-65
2022/08/26 06:21:23;;;;;;;10.70;7.83;;;;;;;20.37;100.00;96105.34;5050727;27;102655;-65
2022/08/26 06:26:38;;;;;;;12.73;8.53;;;;;;;21.12;100.00;96100.13;5050828;27;102002;-65
2022/08/26 06:29:07;;;;;;;15.07;9.13;;;;;;;20.79;100.00;96106.38;5053316;27;104550;-65
2022/08/26 06:31:36;;;;;;;12.23;9.17;;;;;;;20.92;100.00;96098.13;5049062;27;101942;-65
2022/08/26 06:34:04;;;;;;;9.97;8.57;;;;;;;21.07;100.00;96100.31;5049340;27;105147;-65
2022/08/26 06:36:33;;;;;;;10.53;8.70;;;;;;;21.08;100.00;96099.19;5049784;27;102560;-65
2022/08/26 06:39:03;;;;;;;15.70;9.53;;;;;;;21.15;100.00;96109.50;5050795;27;101693;-65
2022/08/26 06:41:32;;;;;;;13.17;9.00;;;;;;;21.08;100.00;96107.28;5050467;27;104280;-65
2022/08/26 06:44:00;;;;;;;12.50;8.70;;;;;;;20.92;100.00;96103.53;5049336;27;103265;-65
2022/08/26 06:46:30;;;;;;;9.40;8.00;;;;;;;21.07;100.00;96102.22;5050132;27;101948;-65
2022/08/26 06:48:58;;;;;;;9.27;8.17;;;;;;;21.29;100.00;96104.66;5053477;27;102370;-65
2022/08/26 06:51:27;;;;;;;8.53;7.60;;;;;;;21.55;100.00;96105.34;5050377;27;102003;-65
2022/08/26 06:53:58;;;;;;;8.83;7.93;;;;;;;21.72;100.00;96099.88;5046312;27;105780;-65
2022/08/26 06:56:27;;;;;;;9.53;8.00;;;;;;;21.61;100.00;96104.84;5029882;27;102053;-65
2022/08/26 06:58:55;;;;;;;8.73;7.80;;;;;;;21.68;100.00;96104.38;5028984;28;102086;-68
2022/08/26 07:01:24;;;;;;;8.97;7.60;;;;;;;21.75;100.00;96108.13;5028578;28;105660;-66
2022/08/26 07:03:55;;;;;;;10.10;7.70;;;;;;;21.95;100.00;96103.88;5028253;28;104307;-66
2022/08/26 07:06:52;;;;;;;9.57;8.10;;;;;;;21.86;100.00;96108.56;5030781;27;101945;-67
2022/08/26 07:09:20;;;;;;;10.40;8.97;;;;;;;21.71;100.00;96101.00;5048994;27;105003;-67
2022/08/26 07:11:47;;;;;;;8.53;7.63;;;;;;;21.85;100.00;96101.56;5051834;27;105395;-66
2022/08/26 07:14:15;;;;;;;12.43;8.00;;;;;;;22.06;100.00;96107.78;5048883;27;104843;-66
2022/08/26 07:16:52;;;;;;;8.80;7.90;;;;;;;22.26;100.00;96102.38;5051464;27;102790;-65
2022/08/26 07:19:21;;;;;;;10.43;8.17;;;;;;;22.43;100.00;96104.13;5036621;27;102211;-62
2022/08/26 07:21:48;;;;;;;10.97;7.87;;;;;;;22.57;100.00;96097.34;5032043;27;105267;-65
2022/08/26 07:24:15;;;;;;;8.20;7.40;;;;;;;22.64;100.00;96102.22;5040727;27;105816;-65
2022/08/26 07:26:50;;;;;;;8.40;7.50;;;;;;;22.64;100.00;96102.22;5048088;27;102187;-65
2022/08/26 07:29:17;;;;;;;10.03;7.20;;;;;;;23.06;100.00;96104.50;5033667;28;102675;-65
2022/08/26 07:31:44;;;;;;;8.63;7.67;;;;;;;23.10;100.00;96104.63;5033071;28;102774;-65
2022/08/26 07:34:12;;;;;;;9.63;7.60;;;;;;;23.35;100.00;96104.38;5036832;28;102185;-65
2022/08/26 07:36:42;;;;;;;9.60;7.77;;;;;;;23.62;100.00;96098.28;5031279;28;106342;-65
2022/08/26 07:39:09;;;;;;;10.17;7.57;;;;;;;23.68;100.00;96099.63;5033866;27;101662;-65
2022/08/26 07:41:36;;;;;;;9.97;6.80;;;;;;;23.95;100.00;96106.28;5033278;28;103443;-64
2022/08/26 07:44:04;;;;;;;8.13;6.47;;;;;;;23.86;100.00;96094.75;5032786;28;102716;-65
2022/08/26 07:47:17;;;;;;;8.93;6.53;;;;;;;23.61;100.00;96096.69;5046393;27;101910;-65
2022/08/26 07:50:03;;;;;;;9.60;6.67;;;;;;;23.71;100.00;96098.94;5053374;27;102374;-65
2022/08/26 07:52:32;;;;;;;7.73;6.90;;;;;;;23.86;100.00;96094.75;5032656;28;102626;-65
2022/08/26 07:55:01;;;;;;;9.50;7.07;;;;;;;23.89;100.00;96099.50;5033826;27;101878;-65
2022/08/26 07:57:46;;;;;;;8.77;7.87;;;;;;;24.16;100.00;96101.50;5056009;27;102860;-64
2022/08/26 08:00:16;;;;;;;12.00;7.97;;;;;;;24.26;100.00;96096.38;5051091;27;102258;-64
2022/08/26 08:02:44;;;;;;;8.80;7.33;;;;;;;24.66;100.00;96099.09;5051471;27;105774;-64
2022/08/26 08:05:11;;;;;;;9.03;7.07;;;;;;;24.88;100.00;96102.06;5049250;27;102843;-64
2022/08/26 08:07:40;;;;;;;10.17;7.27;;;;;;;25.00;100.00;96090.31;5051411;27;101835;-64
2022/08/26 08:10:08;;;;;;;8.57;6.90;;;;;;;25.20;100.00;96100.19;5049031;27;102394;-64
2022/08/26 08:12:36;;;;;;;7.33;6.63;;;;;;;24.94;100.00;96094.44;5046600;27;105966;-65
2022/08/26 08:15:03;;;;;;;9.63;6.53;;;;;;;25.09;100.00;96089.03;5052933;27;102085;-66
2022/08/26 08:17:34;;;;;;;9.00;6.00;;;;;;;25.37;100.00;96095.22;5051156;27;105192;-66
2022/08/26 08:20:25;;;;;;;7.70;5.77;;;;;;;25.67;100.00;96098.28;5055284;27;102918;-66
2022/08/26 08:22:55;;;;;;;7.17;5.57;;;;;;;25.70;100.00;96084.75;5030995;28;105981;-66
2022/08/26 08:25:40;;;;;;;7.47;5.90;;;;;;;25.41;100.00;96092.59;5032322;27;104084;-66
2022/08/26 08:28:07;;;;;;;8.03;6.80;;;;;;;25.76;100.00;96086.06;5052305;27;101714;-66
2022/08/26 08:30:38;;;;;;;7.10;6.10;;;;;;;25.85;100.00;96080.44;5034727;27;105163;-66
2022/08/26 08:33:05;;;;;;;7.20;5.67;;;;;;;26.05;100.00;96085.59;5050572;27;102615;-66
2022/08/26 08:35:33;;;;;;;8.13;5.60;;;;;;;26.22;100.00;96076.22;5047704;27;101916;-66
2022/08/26 08:38:02;;;;;;;7.30;5.00;;;;;;;26.52;100.00;96082.69;5050723;27;102292;-68
2022/08/26 08:40:30;;;;;;;5.40;4.90;;;;;;;26.48;100.00;96079.91;5047560;27;105105;-68
2022/08/26 08:43:02;;;;;;;6.03;4.73;;;;;;;26.57;100.00;96085.16;5052318;27;101965;-67
2022/08/26 08:45:35;;;;;;;6.97;4.60;;;;;;;27.05;100.00;96092.72;5050141;27;103295;-68
2022/08/26 08:48:06;;;;;;;6.53;4.53;;;;;;;26.94;100.00;96083.56;5050289;27;101877;-67
2022/08/26 08:50:35;;;;;;;5.53;4.97;;;;;;;27.02;100.00;96077.88;5049824;27;105107;-67
2022/08/26 08:53:11;;;;;;;7.57;5.20;;;;;;;27.26;100.00;96076.75;5047876;27;105016;-67
2022/08/26 08:55:49;;;;;;;6.20;4.43;;;;;;;27.41;100.00;96078.59;5045417;27;101786;-67
2022/08/26 08:58:19;;;;;;;5.87;4.30;;;;;;;27.41;100.00;96073.91;5047298;27;103660;-67
2022/08/26 09:00:51;;;;;;;4.80;4.40;;;;;;;27.83;100.00;96082.00;5049526;27;106096;-67
2022/08/26 09:03:32;;;;;;;7.63;4.70;;;;;;;27.31;100.00;96085.44;5038570;27;102757;-65
2022/08/26 09:06:01;;;;;;;4.97;4.53;;;;;;;27.11;100.00;96083.09;5049905;27;105999;-64
2022/08/26 09:08:35;;;;;;;5.80;4.63;;;;;;;27.40;100.00;96077.78;5033613;27;101777;-66
2022/08/26 09:11:04;;;;;;;4.70;3.97;;;;;;;27.63;99.85;96075.06;5030336;28;105298;-64
2022/08/26 09:13:31;;;;;;;5.47;4.23;;;;;;;27.44;90.35;96075.13;5031943;27;105341;-63
2022/08/26 09:16:06;;;;;;;4.27;3.90;;;;;;;27.61;88.64;96069.16;5051283;27;101822;-63
2022/08/26 09:18:51;;;;;;;4.73;3.90;;;;;;;27.62;88.74;96078.94;5031300;27;105113;-64
2022/08/26 09:21:22;;;;;;;4.40;4.00;;;;;;;28.29;97.44;96073.31;5047696;27;104218;-65
2022/08/26 09:23:56;;;;;;;4.17;3.80;;;;;;;28.38;97.54;96070.34;5049397;27;102029;-65
2022/08/26 09:26:26;;;;;;;4.30;3.90;;;;;;;28.16;85.12;96073.94;5053989;27;102281;-65
2022/08/26 09:28:56;;;;;;;5.60;3.87;;;;;;;28.48;91.43;96077.88;5031587;27;101716;-65
2022/08/26 09:31:26;;;;;;;4.03;3.70;;;;;;;28.27;75.57;96074.88;5030139;27;105635;-65
2022/08/26 09:34:07;;;;;;;5.83;4.10;;;;;;;28.13;81.07;96063.72;5049259;27;105721;-65
2022/08/26 09:36:39;;;;;;;3.87;3.57;;;;;;;28.28;80.07;96069.00;5051191;27;101806;-65
2022/08/26 09:39:24;;;;;;;5.67;3.40;;;;;;;28.52;81.12;96062.31;5042784;27;102326;-65
2022/08/26 09:42:03;;;;;;;4.00;3.60;;;;;;;28.19;80.83;96062.25;5030575;27;103054;-65
2022/08/26 09:44:30;;;;;;;5.43;3.90;;;;;;;28.17;85.01;96061.84;5029645;27;102112;-65
2022/08/26 09:47:01;;;;;;;4.20;3.80;;;;;;;28.19;81.07;96054.03;5035771;27;101929;-65
2022/08/26 09:49:34;;;;;;;5.37;3.97;;;;;;;28.17;83.34;96053.63;5050589;27;105758;-65
2022/08/26 09:52:13;;;;;;;5.18;4.30;;;;;;;27.93;78.39;96054.06;5050733;27;103422;-65
2022/08/26 09:54:44;;;;;;;3.87;3.47;;;;;;;28.38;87.23;96051.22;5050586;27;103153;-65
2022/08/26 09:57:25;;;;;;;4.03;3.73;;;;;;;28.84;73.81;96047.84;5043765;27;102187;-65
2022/08/26 09:59:53;;;;;;;4.87;4.10;;;;;;;28.27;77.77;96050.25;5031639;27;102424;-66
2022/08/26 10:02:36;;;;;;;4.10;3.77;;;;;;;28.19;83.96;96045.84;5028505;27;105598;-65
2022/08/26 10:05:08;;;;;;;5.37;3.87;;;;;;;27.95;85.73;96038.09;5042538;27;101885;-65
2022/08/26 10:07:42;;;;;;;4.77;3.87;;;;;;;28.38;88.38;96040.25;5050847;27;102337;-66
2022/08/26 10:10:16;;;;;;;4.37;3.93;;;;;;;28.38;91.62;96023.84;5046402;27;106620;-64
2022/08/26 10:12:53;;;;;;;4.17;3.80;;;;;;;27.85;86.26;96022.31;5043397;27;102201;-63
2022/08/26 10:15:23;;;;;;;3.70;3.40;;;;;;;28.25;83.09;96026.00;5030168;27;101811;-63
2022/08/26 10:17:58;;;;;;;4.37;4.00;;;;;;;28.02;90.53;96021.78;5042259;27;101850;-63
2022/08/26 10:20:29;;;;;;;4.37;3.73;;;;;;;28.38;73.67;96024.63;5050726;27;102362;-64
2022/08/26 10:23:01;;;;;;;5.10;3.70;;;;;;;27.79;88.89;96012.88;5048014;27;105087;-64
2022/08/26 10:25:33;;;;;;;4.27;3.80;;;;;;;27.62;92.19;96000.47;5050692;27;102038;-64
2022/08/26 10:28:07;;;;;;;4.20;3.90;;;;;;;27.99;85.24;96006.09;5050952;27;102576;-63
2022/08/26 10:30:38;;;;;;;5.43;4.20;;;;;;;28.54;80.71;96008.00;5040412;27;104010;-64
2022/08/26 10:33:08;;;;;;;5.40;3.40;;;;;;;28.08;82.27;95999.22;5029098;28;101849;-63
2022/08/26 10:35:40;;;;;;;3.73;3.33;;;;;;;28.33;84.06;96002.25;5051049;27;102280;-63
2022/08/26 10:38:13;;;;;;;3.63;3.33;;;;;;;28.45;78.19;96002.03;5047779;27;101975;-63
2022/08/26 10:40:55;;;;;;;4.40;3.13;;;;;;;28.28;78.59;95991.66;5038517;27;102858;-63
2022/08/26 10:43:26;;;;;;;3.73;3.43;;;;;;;28.29;83.89;95990.50;5044225;27;103996;-63
2022/08/26 10:45:57;;;;;;;3.70;3.40;;;;;;;28.39;84.05;95987.13;5028781;28;102112;-63
2022/08/26 10:48:32;;;;;;;5.20;3.67;;;;;;;28.28;78.76;95989.69;5028807;27;105066;-63
2022/08/26 10:51:02;;;;;;;6.10;3.87;;;;;;;28.20;82.65;95989.97;5042532;27;102634;-63
2022/08/26 10:53:39;;;;;;;4.43;3.50;;;;;;;29.11;88.53;95985.53;5050972;27;101991;-63
2022/08/26 10:56:25;;;;;;;5.00;3.33;;;;;;;29.98;79.66;95977.19;5054376;27;102295;-63
2022/08/26 10:59:01;;;;;;;4.10;3.60;;;;;;;30.10;67.25;95976.84;5056101;27;102163;-63
2022/08/26 11:01:45;;;;;;;4.78;3.38;;;;;;;29.73;65.88;95978.97;5038380;27;102802;-63
2022/08/26 11:04:42;;;;;;;3.88;3.47;;;;;;;29.19;70.33;95971.53;5037049;27;102563;-63
2022/08/26 11:07:36;;;;;;;3.60;3.38;;;;;;;29.47;67.35;95963.53;5032197;28;101981;-67
2022/08/26 11:10:07;;;;;;;3.88;3.58;;;;;;;29.12;76.47;95962.47;5031819;27;104550;-68
2022/08/26 11:12:56;;;;;;;5.13;3.90;;;;;;;28.61;76.70;95959.59;5032196;27;103047;-68
2022/08/26 11:16:07;;;;;;;4.03;3.72;;;;;;;29.01;77.76;95956.09;5032252;27;101804;-68
2022/08/26 11:18:53;;;;;;;5.32;3.58;;;;;;;30.40;87.77;95947.97;5036184;27;105813;-69
2022/08/26 11:21:50;;;;;;;4.85;4.07;;;;;;;31.01;72.67;95938.72;5035210;28;102755;-68
2022/08/26 11:24:44;;;;;;;4.07;3.75;;;;;;;31.40;67.78;95942.28;5032173;28;105354;-69
2022/08/26 11:28:03;;;;;;;4.13;3.45;;;;;;;31.72;69.75;95940.25;5032737;27;103094;-66
2022/08/26 11:30:50;;;;;;;5.05;4.10;;;;;;;31.64;67.28;95930.44;5015901;28;101762;-67
2022/08/26 11:33:54;;;;;;;3.95;3.65;;;;;;;31.26;73.23;95929.31;5033685;28;102295;-67
2022/08/26 11:36:54;;;;;;;3.55;3.33;;;;;;;31.52;67.38;95933.59;5032959;27;103443;-67